sensor_id;sensor_type;location;lat;lon;timestamp;P1;durP1;ratioP1;P2;durP2;ratioP2
14348;SDS011;7258;50.376;8.742;2023-07-30T00:00:24;2.38;;;2.10;;
14348;SDS011;7258;50.376;8.742;2023-07-30T00:02:28;2.25;;;2.00;;
14348;SDS011;7258;50.376;8.742;2023-07-30T00:04:31;2.38;;;1.85;;
14348;SDS011;7258;50.376;8.742;2023-07-30T00:06:33;1.83;;;1.73;;
14348;SDS011;7258;50.376;8.742;2023-07-30T00:08:36;4.20;;;2.03;;
14348;SDS011;7258;50.376;8.742;2023-07-30T00:10:39;1.60;;;1.50;;
14348;SDS011;7258;50.376;8.742;2023-07-30T00:12:41;1.77;;;1.67;;
14348;SDS011;7258;50.376;8.742;2023-07-30T00:14:44;2.00;;;1.90;;
14348;SDS011;7258;50.376;8.742;2023-07-30T00:16:47;2.60;;;2.17;;
14348;SDS011;7258;50.376;8.742;2023-07-30T00:18:51;4.18;;;1.75;;
14348;SDS011;7258;50.376;8.742;2023-07-30T00:20:54;2.90;;;1.52;;
14348;SDS011;7258;50.376;8.742;2023-07-30T00:22:57;1.80;;;1.70;;
14348;SDS011;7258;50.376;8.742;2023-07-30T00:25:00;2.03;;;1.60;;
14348;SDS011;7258;50.376;8.742;2023-07-30T00:27:05;1.80;;;1.70;;
14348;SDS011;7258;50.376;8.742;2023-07-30T00:29:07;1.52;;;1.40;;
14348;SDS011;7258;50.376;8.742;2023-07-30T00:31:10;2.13;;;1.60;;
14348;SDS011;7258;50.376;8.742;2023-07-30T00:33:13;3.47;;;1.65;;
14348;SDS011;7258;50.376;8.742;2023-07-30T00:35:17;1.60;;;1.50;;
14348;SDS011;7258;50.376;8.742;2023-07-30T00:37:20;2.90;;;1.90;;
14348;SDS011;7258;50.376;8.742;2023-07-30T00:39:23;1.85;;;1.50;;
14348;SDS011;7258;50.376;8.742;2023-07-30T00:41:29;2.08;;;1.85;;
14348;SDS011;7258;50.376;8.742;2023-07-30T00:43:32;1.83;;;1.70;;
14348;SDS011;7258;50.376;8.742;2023-07-30T00:45:36;3.67;;;1.90;;
14348;SDS011;7258;50.376;8.742;2023-07-30T00:47:40;1.85;;;1.73;;
14348;SDS011;7258;50.376;8.742;2023-07-30T00:49:44;2.00;;;1.80;;
14348;SDS011;7258;50.376;8.742;2023-07-30T00:51:49;2.03;;;1.70;;
14348;SDS011;7258;50.376;8.742;2023-07-30T00:53:52;1.80;;;1.70;;
14348;SDS011;7258;50.376;8.742;2023-07-30T00:55:55;1.70;;;1.60;;
14348;SDS011;7258;50.376;8.742;2023-07-30T00:57:57;1.73;;;1.48;;
14348;SDS011;7258;50.376;8.742;2023-07-30T01:00:00;2.67;;;1.98;;
14348;SDS011;7258;50.376;8.742;2023-07-30T01:02:06;1.83;;;1.73;;
14348;SDS011;7258;50.376;8.742;2023-07-30T01:04:09;1.70;;;1.60;;
14348;SDS011;7258;50.376;8.742;2023-07-30T01:06:12;2.03;;;1.90;;
14348;SDS011;7258;50.376;8.742;2023-07-30T01:08:17;1.80;;;1.70;;
14348;SDS011;7258;50.376;8.742;2023-07-30T01:10:20;2.58;;;1.50;;
14348;SDS011;7258;50.376;8.742;2023-07-30T01:12:25;1.80;;;1.70;;
14348;SDS011;7258;50.376;8.742;2023-07-30T01:14:28;2.13;;;1.80;;
14348;SDS011;7258;50.376;8.742;2023-07-30T01:16:32;1.95;;;1.85;;
14348;SDS011;7258;50.376;8.742;2023-07-30T01:18:35;1.60;;;1.50;;
14348;SDS011;7258;50.376;8.742;2023-07-30T01:20:38;2.22;;;1.80;;
14348;SDS011;7258;50.376;8.742;2023-07-30T01:22:43;2.80;;;1.77;;
14348;SDS011;7258;50.376;8.742;2023-07-30T01:24:46;2.10;;;1.70;;
14348;SDS011;7258;50.376;8.742;2023-07-30T01:26:51;1.52;;;1.42;;
14348;SDS011;7258;50.376;8.742;2023-07-30T01:29:00;2.10;;;1.90;;
14348;SDS011;7258;50.376;8.742;2023-07-30T01:31:06;2.45;;;1.60;;
14348;SDS011;7258;50.376;8.742;2023-07-30T01:33:10;1.90;;;1.80;;
14348;SDS011;7258;50.376;8.742;2023-07-30T01:35:14;2.20;;;2.00;;
14348;SDS011;7258;50.376;8.742;2023-07-30T01:37:17;2.35;;;1.85;;
14348;SDS011;7258;50.376;8.742;2023-07-30T01:39:23;3.40;;;1.80;;
14348;SDS011;7258;50.376;8.742;2023-07-30T01:41:26;1.73;;;1.60;;
14348;SDS011;7258;50.376;8.742;2023-07-30T01:43:29;2.28;;;1.98;;
14348;SDS011;7258;50.376;8.742;2023-07-30T01:45:32;3.47;;;1.90;;
14348;SDS011;7258;50.376;8.742;2023-07-30T01:47:35;2.05;;;1.80;;
14348;SDS011;7258;50.376;8.742;2023-07-30T01:49:38;2.42;;;1.60;;
14348;SDS011;7258;50.376;8.742;2023-07-30T01:51:42;1.75;;;1.63;;
14348;SDS011;7258;50.376;8.742;2023-07-30T01:53:45;1.83;;;1.65;;
14348;SDS011;7258;50.376;8.742;2023-07-30T01:55:49;1.67;;;1.52;;
14348;SDS011;7258;50.376;8.742;2023-07-30T01:57:52;1.85;;;1.75;;
14348;SDS011;7258;50.376;8.742;2023-07-30T01:59:54;2.00;;;1.80;;
14348;SDS011;7258;50.376;8.742;2023-07-30T02:01:57;1.70;;;1.60;;
14348;SDS011;7258;50.376;8.742;2023-07-30T02:04:00;2.78;;;1.70;;
14348;SDS011;7258;50.376;8.742;2023-07-30T02:06:03;1.95;;;1.73;;
14348;SDS011;7258;50.376;8.742;2023-07-30T02:08:05;1.75;;;1.65;;
14348;SDS011;7258;50.376;8.742;2023-07-30T02:10:08;2.22;;;1.90;;
14348;SDS011;7258;50.376;8.742;2023-07-30T02:12:13;1.85;;;1.67;;
14348;SDS011;7258;50.376;8.742;2023-07-30T02:14:17;3.65;;;1.90;;
14348;SDS011;7258;50.376;8.742;2023-07-30T02:16:20;3.95;;;1.98;;
14348;SDS011;7258;50.376;8.742;2023-07-30T02:18:23;1.88;;;1.75;;
14348;SDS011;7258;50.376;8.742;2023-07-30T02:20:26;1.95;;;1.52;;
14348;SDS011;7258;50.376;8.742;2023-07-30T02:22:29;6.85;;;2.10;;
14348;SDS011;7258;50.376;8.742;2023-07-30T02:24:32;1.70;;;1.52;;
14348;SDS011;7258;50.376;8.742;2023-07-30T02:26:35;2.58;;;1.80;;
14348;SDS011;7258;50.376;8.742;2023-07-30T02:28:39;1.70;;;1.60;;
14348;SDS011;7258;50.376;8.742;2023-07-30T02:30:42;3.53;;;1.80;;
14348;SDS011;7258;50.376;8.742;2023-07-30T02:32:45;2.05;;;1.80;;
14348;SDS011;7258;50.376;8.742;2023-07-30T02:34:48;2.25;;;2.05;;
14348;SDS011;7258;50.376;8.742;2023-07-30T02:36:51;2.60;;;1.80;;
14348;SDS011;7258;50.376;8.742;2023-07-30T02:38:54;2.05;;;1.90;;
14348;SDS011;7258;50.376;8.742;2023-07-30T02:40:57;1.75;;;1.65;;
14348;SDS011;7258;50.376;8.742;2023-07-30T02:43:00;1.70;;;1.60;;
14348;SDS011;7258;50.376;8.742;2023-07-30T02:45:05;1.92;;;1.75;;
14348;SDS011;7258;50.376;8.742;2023-07-30T02:47:08;2.10;;;1.90;;
14348;SDS011;7258;50.376;8.742;2023-07-30T02:49:11;1.98;;;1.77;;
14348;SDS011;7258;50.376;8.742;2023-07-30T02:51:14;2.17;;;1.77;;
14348;SDS011;7258;50.376;8.742;2023-07-30T02:53:17;2.17;;;1.83;;
14348;SDS011;7258;50.376;8.742;2023-07-30T02:55:20;1.90;;;1.67;;
14348;SDS011;7258;50.376;8.742;2023-07-30T02:57:23;2.78;;;1.95;;
14348;SDS011;7258;50.376;8.742;2023-07-30T02:59:27;1.80;;;1.70;;
14348;SDS011;7258;50.376;8.742;2023-07-30T03:01:31;1.83;;;1.73;;
14348;SDS011;7258;50.376;8.742;2023-07-30T03:03:34;2.15;;;1.80;;
14348;SDS011;7258;50.376;8.742;2023-07-30T03:05:39;1.90;;;1.80;;
14348;SDS011;7258;50.376;8.742;2023-07-30T03:07:44;3.97;;;1.77;;
14348;SDS011;7258;50.376;8.742;2023-07-30T03:09:47;3.55;;;1.95;;
14348;SDS011;7258;50.376;8.742;2023-07-30T03:11:50;1.77;;;1.65;;
14348;SDS011;7258;50.376;8.742;2023-07-30T03:13:53;2.05;;;1.50;;
14348;SDS011;7258;50.376;8.742;2023-07-30T03:15:55;2.17;;;1.95;;
14348;SDS011;7258;50.376;8.742;2023-07-30T03:17:59;4.00;;;1.73;;
14348;SDS011;7258;50.376;8.742;2023-07-30T03:20:02;2.20;;;2.00;;
14348;SDS011;7258;50.376;8.742;2023-07-30T03:22:06;1.92;;;1.80;;
14348;SDS011;7258;50.376;8.742;2023-07-30T03:24:09;1.90;;;1.80;;
14348;SDS011;7258;50.376;8.742;2023-07-30T03:26:12;2.00;;;1.70;;
14348;SDS011;7258;50.376;8.742;2023-07-30T03:28:14;2.78;;;1.70;;
14348;SDS011;7258;50.376;8.742;2023-07-30T03:30:16;2.28;;;2.08;;
14348;SDS011;7258;50.376;8.742;2023-07-30T03:32:19;2.40;;;2.00;;
14348;SDS011;7258;50.376;8.742;2023-07-30T03:34:24;2.90;;;1.75;;
14348;SDS011;7258;50.376;8.742;2023-07-30T03:36:27;3.17;;;1.85;;
14348;SDS011;7258;50.376;8.742;2023-07-30T03:38:29;2.10;;;1.90;;
14348;SDS011;7258;50.376;8.742;2023-07-30T03:40:32;2.35;;;2.08;;
14348;SDS011;7258;50.376;8.742;2023-07-30T03:42:34;2.60;;;1.98;;
14348;SDS011;7258;50.376;8.742;2023-07-30T03:44:37;2.22;;;1.80;;
14348;SDS011;7258;50.376;8.742;2023-07-30T03:46:40;1.90;;;1.70;;
14348;SDS011;7258;50.376;8.742;2023-07-30T03:48:43;3.80;;;2.13;;
14348;SDS011;7258;50.376;8.742;2023-07-30T03:50:48;2.00;;;1.90;;
14348;SDS011;7258;50.376;8.742;2023-07-30T03:52:51;4.60;;;1.80;;
14348;SDS011;7258;50.376;8.742;2023-07-30T03:54:53;1.83;;;1.73;;
14348;SDS011;7258;50.376;8.742;2023-07-30T03:56:56;2.22;;;1.90;;
14348;SDS011;7258;50.376;8.742;2023-07-30T03:58:59;2.53;;;1.92;;
14348;SDS011;7258;50.376;8.742;2023-07-30T04:01:02;1.90;;;1.80;;
14348;SDS011;7258;50.376;8.742;2023-07-30T04:03:05;2.13;;;1.75;;
14348;SDS011;7258;50.376;8.742;2023-07-30T04:05:08;2.05;;;1.90;;
14348;SDS011;7258;50.376;8.742;2023-07-30T04:07:13;2.42;;;1.90;;
14348;SDS011;7258;50.376;8.742;2023-07-30T04:09:16;2.75;;;1.92;;
14348;SDS011;7258;50.376;8.742;2023-07-30T04:11:18;3.90;;;1.95;;
14348;SDS011;7258;50.376;8.742;2023-07-30T04:13:21;3.20;;;1.95;;
14348;SDS011;7258;50.376;8.742;2023-07-30T04:15:24;4.03;;;1.92;;
14348;SDS011;7258;50.376;8.742;2023-07-30T04:17:27;2.15;;;1.80;;
14348;SDS011;7258;50.376;8.742;2023-07-30T04:19:30;2.70;;;1.80;;
14348;SDS011;7258;50.376;8.742;2023-07-30T04:21:33;3.50;;;2.00;;
14348;SDS011;7258;50.376;8.742;2023-07-30T04:23:38;2.10;;;2.00;;
14348;SDS011;7258;50.376;8.742;2023-07-30T04:25:40;2.40;;;2.20;;
14348;SDS011;7258;50.376;8.742;2023-07-30T04:27:43;2.70;;;2.50;;
14348;SDS011;7258;50.376;8.742;2023-07-30T04:29:45;3.35;;;2.38;;
14348;SDS011;7258;50.376;8.742;2023-07-30T04:31:48;4.63;;;2.00;;
14348;SDS011;7258;50.376;8.742;2023-07-30T04:33:52;2.22;;;2.03;;
14348;SDS011;7258;50.376;8.742;2023-07-30T04:35:55;2.55;;;2.08;;
14348;SDS011;7258;50.376;8.742;2023-07-30T04:37:58;2.08;;;1.90;;
14348;SDS011;7258;50.376;8.742;2023-07-30T04:40:03;2.47;;;2.15;;
14348;SDS011;7258;50.376;8.742;2023-07-30T04:42:07;2.15;;;1.92;;
14348;SDS011;7258;50.376;8.742;2023-07-30T04:44:10;2.42;;;1.85;;
14348;SDS011;7258;50.376;8.742;2023-07-30T04:46:13;1.85;;;1.70;;
14348;SDS011;7258;50.376;8.742;2023-07-30T04:48:16;3.25;;;1.80;;
14348;SDS011;7258;50.376;8.742;2023-07-30T04:50:19;2.08;;;1.88;;
14348;SDS011;7258;50.376;8.742;2023-07-30T04:52:21;2.40;;;2.20;;
14348;SDS011;7258;50.376;8.742;2023-07-30T04:54:24;2.35;;;2.15;;
14348;SDS011;7258;50.376;8.742;2023-07-30T04:56:29;2.85;;;2.00;;
14348;SDS011;7258;50.376;8.742;2023-07-30T04:58:32;2.00;;;1.90;;
14348;SDS011;7258;50.376;8.742;2023-07-30T05:00:35;2.17;;;1.98;;
14348;SDS011;7258;50.376;8.742;2023-07-30T05:02:38;2.55;;;2.10;;
14348;SDS011;7258;50.376;8.742;2023-07-30T05:04:41;2.35;;;2.20;;
14348;SDS011;7258;50.376;8.742;2023-07-30T05:06:44;4.47;;;2.33;;
14348;SDS011;7258;50.376;8.742;2023-07-30T05:08:46;2.40;;;2.20;;
14348;SDS011;7258;50.376;8.742;2023-07-30T05:10:49;4.68;;;2.10;;
14348;SDS011;7258;50.376;8.742;2023-07-30T05:12:54;2.35;;;2.08;;
14348;SDS011;7258;50.376;8.742;2023-07-30T05:14:57;2.45;;;1.85;;
14348;SDS011;7258;50.376;8.742;2023-07-30T05:17:00;2.55;;;1.92;;
14348;SDS011;7258;50.376;8.742;2023-07-30T05:19:04;2.95;;;1.90;;
14348;SDS011;7258;50.376;8.742;2023-07-30T05:21:07;3.25;;;2.00;;
14348;SDS011;7258;50.376;8.742;2023-07-30T05:23:10;2.38;;;2.00;;
14348;SDS011;7258;50.376;8.742;2023-07-30T05:25:13;2.10;;;2.00;;
14348;SDS011;7258;50.376;8.742;2023-07-30T05:27:16;2.30;;;2.03;;
14348;SDS011;7258;50.376;8.742;2023-07-30T05:29:20;2.03;;;1.88;;
14348;SDS011;7258;50.376;8.742;2023-07-30T05:31:23;3.60;;;1.85;;
14348;SDS011;7258;50.376;8.742;2023-07-30T05:33:26;1.70;;;1.60;;
14348;SDS011;7258;50.376;8.742;2023-07-30T05:35:29;2.35;;;2.00;;
14348;SDS011;7258;50.376;8.742;2023-07-30T05:37:33;4.63;;;1.77;;
14348;SDS011;7258;50.376;8.742;2023-07-30T05:39:35;2.20;;;1.92;;
14348;SDS011;7258;50.376;8.742;2023-07-30T05:41:38;3.58;;;1.75;;
14348;SDS011;7258;50.376;8.742;2023-07-30T05:43:40;1.85;;;1.75;;
14348;SDS011;7258;50.376;8.742;2023-07-30T05:45:45;1.80;;;1.65;;
14348;SDS011;7258;50.376;8.742;2023-07-30T05:47:48;2.17;;;2.00;;
14348;SDS011;7258;50.376;8.742;2023-07-30T05:49:51;2.10;;;1.92;;
14348;SDS011;7258;50.376;8.742;2023-07-30T05:51:54;2.50;;;2.05;;
14348;SDS011;7258;50.376;8.742;2023-07-30T05:53:57;2.47;;;2.00;;
14348;SDS011;7258;50.376;8.742;2023-07-30T05:56:00;1.80;;;1.70;;
14348;SDS011;7258;50.376;8.742;2023-07-30T05:58:02;2.35;;;1.98;;
14348;SDS011;7258;50.376;8.742;2023-07-30T06:00:06;3.20;;;2.30;;
14348;SDS011;7258;50.376;8.742;2023-07-30T06:02:11;2.50;;;2.30;;
14348;SDS011;7258;50.376;8.742;2023-07-30T06:04:14;3.80;;;2.10;;
14348;SDS011;7258;50.376;8.742;2023-07-30T06:06:17;2.10;;;2.00;;
14348;SDS011;7258;50.376;8.742;2023-07-30T06:08:28;3.67;;;2.00;;
14348;SDS011;7258;50.376;8.742;2023-07-30T06:10:31;2.40;;;2.08;;
14348;SDS011;7258;50.376;8.742;2023-07-30T06:12:37;2.20;;;1.70;;
14348;SDS011;7258;50.376;8.742;2023-07-30T06:14:40;2.65;;;2.10;;
14348;SDS011;7258;50.376;8.742;2023-07-30T06:16:42;1.90;;;1.73;;
14348;SDS011;7258;50.376;8.742;2023-07-30T06:18:47;3.80;;;2.10;;
14348;SDS011;7258;50.376;8.742;2023-07-30T06:20:50;2.20;;;1.85;;
14348;SDS011;7258;50.376;8.742;2023-07-30T06:22:53;2.30;;;2.10;;
14348;SDS011;7258;50.376;8.742;2023-07-30T06:24:56;3.10;;;2.15;;
14348;SDS011;7258;50.376;8.742;2023-07-30T06:26:59;3.95;;;2.17;;
14348;SDS011;7258;50.376;8.742;2023-07-30T06:29:02;3.67;;;1.88;;
14348;SDS011;7258;50.376;8.742;2023-07-30T06:31:05;1.88;;;1.70;;
14348;SDS011;7258;50.376;8.742;2023-07-30T06:33:09;1.77;;;1.67;;
14348;SDS011;7258;50.376;8.742;2023-07-30T06:35:13;5.53;;;1.90;;
14348;SDS011;7258;50.376;8.742;2023-07-30T06:37:16;2.08;;;1.90;;
14348;SDS011;7258;50.376;8.742;2023-07-30T06:39:19;3.72;;;1.85;;
14348;SDS011;7258;50.376;8.742;2023-07-30T06:41:23;1.70;;;1.60;;
14348;SDS011;7258;50.376;8.742;2023-07-30T06:43:26;2.35;;;1.58;;
14348;SDS011;7258;50.376;8.742;2023-07-30T06:45:29;3.15;;;1.42;;
14348;SDS011;7258;50.376;8.742;2023-07-30T06:47:32;1.63;;;1.52;;
14348;SDS011;7258;50.376;8.742;2023-07-30T06:49:37;1.73;;;1.40;;
14348;SDS011;7258;50.376;8.742;2023-07-30T06:51:41;2.63;;;1.60;;
14348;SDS011;7258;50.376;8.742;2023-07-30T06:53:44;4.50;;;1.50;;
14348;SDS011;7258;50.376;8.742;2023-07-30T06:55:46;3.40;;;1.80;;
14348;SDS011;7258;50.376;8.742;2023-07-30T06:57:49;1.83;;;1.30;;
14348;SDS011;7258;50.376;8.742;2023-07-30T06:59:52;3.67;;;1.88;;
14348;SDS011;7258;50.376;8.742;2023-07-30T07:01:54;2.28;;;1.75;;
14348;SDS011;7258;50.376;8.742;2023-07-30T07:03:57;1.70;;;1.60;;
14348;SDS011;7258;50.376;8.742;2023-07-30T07:06:00;4.47;;;1.65;;
14348;SDS011;7258;50.376;8.742;2023-07-30T07:08:04;3.17;;;1.50;;
14348;SDS011;7258;50.376;8.742;2023-07-30T07:10:08;1.60;;;1.30;;
14348;SDS011;7258;50.376;8.742;2023-07-30T07:12:12;3.10;;;1.30;;
14348;SDS011;7258;50.376;8.742;2023-07-30T07:14:15;2.00;;;1.50;;
14348;SDS011;7258;50.376;8.742;2023-07-30T07:16:18;1.83;;;1.27;;
14348;SDS011;7258;50.376;8.742;2023-07-30T07:18:21;1.85;;;1.58;;
14348;SDS011;7258;50.376;8.742;2023-07-30T07:20:24;1.33;;;1.23;;
14348;SDS011;7258;50.376;8.742;2023-07-30T07:22:27;2.05;;;1.38;;
14348;SDS011;7258;50.376;8.742;2023-07-30T07:24:31;2.70;;;1.38;;
14348;SDS011;7258;50.376;8.742;2023-07-30T07:26:33;1.40;;;1.30;;
14348;SDS011;7258;50.376;8.742;2023-07-30T07:28:36;2.97;;;1.40;;
14348;SDS011;7258;50.376;8.742;2023-07-30T07:30:39;2.13;;;1.48;;
14348;SDS011;7258;50.376;8.742;2023-07-30T07:32:42;1.40;;;1.30;;
14348;SDS011;7258;50.376;8.742;2023-07-30T07:34:49;2.83;;;1.30;;
14348;SDS011;7258;50.376;8.742;2023-07-30T07:37:01;2.42;;;1.60;;
14348;SDS011;7258;50.376;8.742;2023-07-30T07:39:05;3.17;;;1.50;;
14348;SDS011;7258;50.376;8.742;2023-07-30T07:41:13;3.17;;;1.55;;
14348;SDS011;7258;50.376;8.742;2023-07-30T07:43:16;1.75;;;1.42;;
14348;SDS011;7258;50.376;8.742;2023-07-30T07:45:19;2.25;;;1.70;;
14348;SDS011;7258;50.376;8.742;2023-07-30T07:47:22;2.65;;;1.40;;
14348;SDS011;7258;50.376;8.742;2023-07-30T07:49:25;2.33;;;1.60;;
14348;SDS011;7258;50.376;8.742;2023-07-30T07:51:28;2.30;;;1.58;;
14348;SDS011;7258;50.376;8.742;2023-07-30T07:53:31;3.45;;;1.60;;
14348;SDS011;7258;50.376;8.742;2023-07-30T07:55:35;1.73;;;1.45;;
14348;SDS011;7258;50.376;8.742;2023-07-30T07:57:40;3.20;;;1.70;;
14348;SDS011;7258;50.376;8.742;2023-07-30T07:59:43;3.13;;;1.42;;
14348;SDS011;7258;50.376;8.742;2023-07-30T08:01:46;3.40;;;1.75;;
14348;SDS011;7258;50.376;8.742;2023-07-30T08:03:50;5.05;;;1.75;;
14348;SDS011;7258;50.376;8.742;2023-07-30T08:05:53;2.40;;;1.80;;
14348;SDS011;7258;50.376;8.742;2023-07-30T08:07:55;2.20;;;2.00;;
14348;SDS011;7258;50.376;8.742;2023-07-30T08:09:58;2.30;;;1.88;;
14348;SDS011;7258;50.376;8.742;2023-07-30T08:12:01;3.55;;;1.50;;
14348;SDS011;7258;50.376;8.742;2023-07-30T08:14:06;1.90;;;1.33;;
14348;SDS011;7258;50.376;8.742;2023-07-30T08:16:09;2.55;;;1.60;;
14348;SDS011;7258;50.376;8.742;2023-07-30T08:18:11;4.13;;;1.63;;
14348;SDS011;7258;50.376;8.742;2023-07-30T08:20:14;1.55;;;1.45;;
14348;SDS011;7258;50.376;8.742;2023-07-30T08:22:18;2.10;;;1.90;;
14348;SDS011;7258;50.376;8.742;2023-07-30T08:24:21;1.50;;;1.40;;
14348;SDS011;7258;50.376;8.742;2023-07-30T08:26:24;1.50;;;1.40;;
14348;SDS011;7258;50.376;8.742;2023-07-30T08:28:27;1.92;;;1.27;;
14348;SDS011;7258;50.376;8.742;2023-07-30T08:30:31;2.17;;;1.40;;
14348;SDS011;7258;50.376;8.742;2023-07-30T08:32:34;2.75;;;1.60;;
14348;SDS011;7258;50.376;8.742;2023-07-30T08:34:41;1.90;;;1.60;;
14348;SDS011;7258;50.376;8.742;2023-07-30T08:36:44;1.55;;;1.30;;
14348;SDS011;7258;50.376;8.742;2023-07-30T08:38:47;2.97;;;1.63;;
14348;SDS011;7258;50.376;8.742;2023-07-30T08:40:51;2.03;;;1.45;;
14348;SDS011;7258;50.376;8.742;2023-07-30T08:42:56;1.83;;;1.55;;
14348;SDS011;7258;50.376;8.742;2023-07-30T08:45:00;1.40;;;1.30;;
14348;SDS011;7258;50.376;8.742;2023-07-30T08:47:05;1.58;;;1.48;;
14348;SDS011;7258;50.376;8.742;2023-07-30T08:49:08;2.25;;;1.40;;
14348;SDS011;7258;50.376;8.742;2023-07-30T08:51:11;1.88;;;1.45;;
14348;SDS011;7258;50.376;8.742;2023-07-30T08:53:16;2.13;;;1.70;;
14348;SDS011;7258;50.376;8.742;2023-07-30T08:55:20;1.45;;;1.35;;
14348;SDS011;7258;50.376;8.742;2023-07-30T08:57:25;1.58;;;1.30;;
14348;SDS011;7258;50.376;8.742;2023-07-30T08:59:31;1.38;;;1.27;;
14348;SDS011;7258;50.376;8.742;2023-07-30T09:01:40;1.63;;;1.25;;
14348;SDS011;7258;50.376;8.742;2023-07-30T09:03:45;2.17;;;1.38;;
14348;SDS011;7258;50.376;8.742;2023-07-30T09:05:50;4.97;;;1.50;;
14348;SDS011;7258;50.376;8.742;2023-07-30T09:07:53;4.07;;;1.52;;
14348;SDS011;7258;50.376;8.742;2023-07-30T09:09:56;1.85;;;1.40;;
14348;SDS011;7258;50.376;8.742;2023-07-30T09:12:00;2.50;;;1.38;;
14348;SDS011;7258;50.376;8.742;2023-07-30T09:14:05;2.10;;;1.40;;
14348;SDS011;7258;50.376;8.742;2023-07-30T09:16:09;1.67;;;1.58;;
14348;SDS011;7258;50.376;8.742;2023-07-30T09:18:16;1.90;;;1.58;;
14348;SDS011;7258;50.376;8.742;2023-07-30T09:20:21;1.60;;;1.50;;
14348;SDS011;7258;50.376;8.742;2023-07-30T09:22:25;2.42;;;1.42;;
14348;SDS011;7258;50.376;8.742;2023-07-30T09:24:28;1.55;;;1.45;;
14348;SDS011;7258;50.376;8.742;2023-07-30T09:26:39;2.00;;;1.60;;
14348;SDS011;7258;50.376;8.742;2023-07-30T09:28:44;1.50;;;1.40;;
14348;SDS011;7258;50.376;8.742;2023-07-30T09:30:49;5.47;;;1.50;;
14348;SDS011;7258;50.376;8.742;2023-07-30T09:32:56;1.83;;;1.60;;
14348;SDS011;7258;50.376;8.742;2023-07-30T09:35:03;4.25;;;1.67;;
14348;SDS011;7258;50.376;8.742;2023-07-30T09:37:09;1.50;;;1.40;;
14348;SDS011;7258;50.376;8.742;2023-07-30T09:39:15;1.92;;;1.80;;
14348;SDS011;7258;50.376;8.742;2023-07-30T09:41:19;2.22;;;1.52;;
14348;SDS011;7258;50.376;8.742;2023-07-30T09:43:27;2.72;;;2.03;;
14348;SDS011;7258;50.376;8.742;2023-07-30T09:45:32;3.58;;;1.77;;
14348;SDS011;7258;50.376;8.742;2023-07-30T09:47:37;2.03;;;1.70;;
14348;SDS011;7258;50.376;8.742;2023-07-30T09:49:40;1.67;;;1.58;;
14348;SDS011;7258;50.376;8.742;2023-07-30T09:51:43;2.08;;;1.90;;
14348;SDS011;7258;50.376;8.742;2023-07-30T09:53:48;3.92;;;1.80;;
14348;SDS011;7258;50.376;8.742;2023-07-30T09:55:52;2.53;;;1.80;;
14348;SDS011;7258;50.376;8.742;2023-07-30T09:57:59;1.80;;;1.67;;
14348;SDS011;7258;50.376;8.742;2023-07-30T10:00:57;5.65;;;1.75;;
14348;SDS011;7258;50.376;8.742;2023-07-30T10:03:01;5.63;;;1.80;;
14348;SDS011;7258;50.376;8.742;2023-07-30T10:05:08;10.60;;;2.20;;
14348;SDS011;7258;50.376;8.742;2023-07-30T10:07:14;2.85;;;1.88;;
14348;SDS011;7258;50.376;8.742;2023-07-30T10:09:23;4.75;;;1.80;;
14348;SDS011;7258;50.376;8.742;2023-07-30T10:11:31;5.13;;;1.90;;
14348;SDS011;7258;50.376;8.742;2023-07-30T10:13:34;1.60;;;1.50;;
14348;SDS011;7258;50.376;8.742;2023-07-30T10:15:38;1.73;;;1.40;;
14348;SDS011;7258;50.376;8.742;2023-07-30T10:17:42;1.45;;;1.35;;
14348;SDS011;7258;50.376;8.742;2023-07-30T10:19:48;1.63;;;1.40;;
14348;SDS011;7258;50.376;8.742;2023-07-30T10:21:53;1.88;;;1.60;;
14348;SDS011;7258;50.376;8.742;2023-07-30T10:24:01;1.55;;;1.42;;
14348;SDS011;7258;50.376;8.742;2023-07-30T10:26:09;1.83;;;1.35;;
14348;SDS011;7258;50.376;8.742;2023-07-30T10:28:31;1.30;;;1.20;;
14348;SDS011;7258;50.376;8.742;2023-07-30T10:30:35;1.67;;;1.10;;
14348;SDS011;7258;50.376;8.742;2023-07-30T10:32:41;1.00;;;1.00;;
14348;SDS011;7258;50.376;8.742;2023-07-30T10:34:59;2.28;;;1.08;;
14348;SDS011;7258;50.376;8.742;2023-07-30T10:37:02;1.10;;;1.00;;
14348;SDS011;7258;50.376;8.742;2023-07-30T10:39:11;1.40;;;1.30;;
14348;SDS011;7258;50.376;8.742;2023-07-30T10:41:18;2.03;;;1.35;;
14348;SDS011;7258;50.376;8.742;2023-07-30T10:43:22;1.65;;;1.42;;
14348;SDS011;7258;50.376;8.742;2023-07-30T10:45:29;1.38;;;1.20;;
14348;SDS011;7258;50.376;8.742;2023-07-30T10:47:35;1.60;;;1.50;;
14348;SDS011;7258;50.376;8.742;2023-07-30T10:49:38;2.33;;;1.60;;
14348;SDS011;7258;50.376;8.742;2023-07-30T10:51:42;1.63;;;1.50;;
14348;SDS011;7258;50.376;8.742;2023-07-30T10:53:45;1.70;;;1.30;;
14348;SDS011;7258;50.376;8.742;2023-07-30T10:55:49;3.17;;;1.67;;
14348;SDS011;7258;50.376;8.742;2023-07-30T10:57:55;2.65;;;1.60;;
14348;SDS011;7258;50.376;8.742;2023-07-30T10:59:58;2.90;;;1.42;;
14348;SDS011;7258;50.376;8.742;2023-07-30T11:02:06;1.85;;;1.30;;
14348;SDS011;7258;50.376;8.742;2023-07-30T11:04:10;1.30;;;1.20;;
14348;SDS011;7258;50.376;8.742;2023-07-30T11:06:21;2.75;;;1.48;;
14348;SDS011;7258;50.376;8.742;2023-07-30T11:08:34;3.45;;;1.70;;
14348;SDS011;7258;50.376;8.742;2023-07-30T11:10:43;5.60;;;1.45;;
14348;SDS011;7258;50.376;8.742;2023-07-30T11:12:48;2.88;;;1.38;;
14348;SDS011;7258;50.376;8.742;2023-07-30T11:14:53;4.25;;;1.70;;
14348;SDS011;7258;50.376;8.742;2023-07-30T11:17:03;2.92;;;1.55;;
14348;SDS011;7258;50.376;8.742;2023-07-30T11:19:07;4.05;;;1.70;;
14348;SDS011;7258;50.376;8.742;2023-07-30T11:21:12;2.28;;;1.60;;
14348;SDS011;7258;50.376;8.742;2023-07-30T11:23:17;5.32;;;1.60;;
14348;SDS011;7258;50.376;8.742;2023-07-30T11:25:20;3.97;;;1.73;;
14348;SDS011;7258;50.376;8.742;2023-07-30T11:27:24;3.10;;;1.77;;
14348;SDS011;7258;50.376;8.742;2023-07-30T11:29:27;2.47;;;1.55;;
14348;SDS011;7258;50.376;8.742;2023-07-30T11:31:32;3.65;;;1.60;;
14348;SDS011;7258;50.376;8.742;2023-07-30T11:33:36;2.53;;;1.50;;
14348;SDS011;7258;50.376;8.742;2023-07-30T11:35:42;1.70;;;1.45;;
14348;SDS011;7258;50.376;8.742;2023-07-30T11:37:44;3.97;;;1.70;;
14348;SDS011;7258;50.376;8.742;2023-07-30T11:39:48;2.35;;;1.42;;
14348;SDS011;7258;50.376;8.742;2023-07-30T11:41:51;3.53;;;1.50;;
14348;SDS011;7258;50.376;8.742;2023-07-30T11:43:54;2.67;;;1.30;;
14348;SDS011;7258;50.376;8.742;2023-07-30T11:46:07;2.80;;;1.40;;
14348;SDS011;7258;50.376;8.742;2023-07-30T11:48:14;2.55;;;1.90;;
14348;SDS011;7258;50.376;8.742;2023-07-30T11:50:20;3.78;;;1.70;;
14348;SDS011;7258;50.376;8.742;2023-07-30T11:52:23;2.65;;;1.70;;
14348;SDS011;7258;50.376;8.742;2023-07-30T11:54:26;4.38;;;1.85;;
14348;SDS011;7258;50.376;8.742;2023-07-30T11:56:31;4.78;;;1.77;;
14348;SDS011;7258;50.376;8.742;2023-07-30T11:58:34;3.47;;;1.80;;
14348;SDS011;7258;50.376;8.742;2023-07-30T12:00:36;4.50;;;1.60;;
14348;SDS011;7258;50.376;8.742;2023-07-30T12:02:40;4.60;;;2.00;;
14348;SDS011;7258;50.376;8.742;2023-07-30T12:04:45;5.40;;;1.92;;
14348;SDS011;7258;50.376;8.742;2023-07-30T12:07:06;4.80;;;1.58;;
14348;SDS011;7258;50.376;8.742;2023-07-30T12:09:13;4.63;;;1.88;;
14348;SDS011;7258;50.376;8.742;2023-07-30T12:11:17;3.70;;;1.90;;
14348;SDS011;7258;50.376;8.742;2023-07-30T12:13:21;4.70;;;1.77;;
14348;SDS011;7258;50.376;8.742;2023-07-30T12:15:27;3.38;;;1.92;;
14348;SDS011;7258;50.376;8.742;2023-07-30T12:17:31;3.10;;;1.50;;
14348;SDS011;7258;50.376;8.742;2023-07-30T12:19:35;4.60;;;1.80;;
14348;SDS011;7258;50.376;8.742;2023-07-30T12:21:39;3.28;;;1.67;;
14348;SDS011;7258;50.376;8.742;2023-07-30T12:23:45;2.65;;;1.65;;
14348;SDS011;7258;50.376;8.742;2023-07-30T12:25:49;3.67;;;1.80;;
14348;SDS011;7258;50.376;8.742;2023-07-30T12:27:55;3.47;;;1.70;;
14348;SDS011;7258;50.376;8.742;2023-07-30T12:29:58;5.03;;;1.75;;
14348;SDS011;7258;50.376;8.742;2023-07-30T12:32:01;5.20;;;1.92;;
14348;SDS011;7258;50.376;8.742;2023-07-30T12:34:05;5.78;;;1.90;;
14348;SDS011;7258;50.376;8.742;2023-07-30T12:36:09;3.55;;;1.70;;
14348;SDS011;7258;50.376;8.742;2023-07-30T12:38:14;4.30;;;1.80;;